Time;durP1;ratioP1;P1;durP2;ratioP2;P2;SDS_P1;SDS_P2;PMS_P1;PMS_P2;Temp;Humidity;BMP_temperature;BMP_pressure;BME280_temperature;BME280_humidity;BME280_pressure;Samples;Min_cycle;Max_cycle;Signal;HPM_P1;HPM_P2
2021/05/11 00:01:25;;;;;;;1.15;0.93;;;21.90;52.00;;;;;;5032601;28;20035;-33
2021/05/11 00:03:56;;;;;;;0.88;0.70;;;21.80;52.00;;;;;;5031044;28;20033;-34
2021/05/11 00:06:27;;;;;;;1.58;0.80;;;21.90;52.00;;;;;;5031098;28;20378;-33
2021/05/11 00:08:55;;;;;;;0.50;0.40;;;21.90;51.90;;;;;;5030675;28;20037;-34
2021/05/11 00:11:26;;;;;;;1.52;0.80;;;21.90;51.80;;;;;;5030944;28;20035;-34
2021/05/11 00:13:55;;;;;;;1.08;0.95;;;21.90;52.00;;;;;;5031092;28;20033;-34
2021/05/11 00:16:23;;;;;;;1.48;0.90;;;21.90;51.80;;;;;;5032061;28;20108;-33
2021/05/11 00:19:07;;;;;;;1.40;0.82;;;21.90;51.90;;;;;;5029488;28;20044;-34
2021/05/11 00:21:38;;;;;;;0.90;0.70;;;21.90;52.60;;;;;;5031270;28;20083;-34
2021/05/11 00:24:12;;;;;;;1.00;0.73;;;21.90;51.80;;;;;;5030714;28;20475;-34
2021/05/11 00:26:43;;;;;;;1.40;1.17;;;21.90;51.90;;;;;;5031015;28;20040;-43
2021/05/11 00:29:09;;;;;;;0.90;0.80;;;21.90;51.90;;;;;;5030035;28;20493;-34
2021/05/11 00:31:40;;;;;;;2.25;0.93;;;21.90;51.80;;;;;;5029760;28;20112;-34
2021/05/11 00:34:09;;;;;;;0.90;0.60;;;21.90;51.80;;;;;;5031516;28;20044;-34
2021/05/11 00:36:43;;;;;;;1.35;0.90;;;21.80;51.80;;;;;;5030286;28;20033;-33
2021/05/11 00:39:20;;;;;;;1.05;0.80;;;21.90;51.80;;;;;;5031411;28;20057;-34
2021/05/11 00:41:46;;;;;;;1.30;0.65;;;21.80;51.70;;;;;;5030466;28;20030;-35
2021/05/11 00:44:44;;;;;;;1.27;0.88;;;21.90;51.80;;;;;;5032862;28;20029;-34
2021/05/11 00:47:32;;;;;;;1.40;1.08;;;21.80;51.80;;;;;;5022053;28;20840;-33
2021/05/11 00:49:59;;;;;;;1.02;0.88;;;21.80;51.70;;;;;;5032202;28;20103;-34
2021/05/11 00:52:43;;;;;;;;;;;;;;;;;;;;;
2021/05/11 00:55:11;;;;;;;1.10;0.80;;;21.80;51.80;;;;;;5034751;28;20385;-34
2021/05/11 00:57:37;;;;;;;1.10;0.82;;;21.90;51.80;;;;;;5034537;28;20437;-36
2021/05/11 01:00:09;;;;;;;1.40;0.98;;;21.80;51.70;;;;;;5034612;28;20037;-40
2021/05/11 01:02:46;;;;;;;1.02;0.90;;;21.90;51.80;;;;;;5034695;28;20033;-33
2021/05/11 01:05:18;;;;;;;2.85;0.90;;;21.90;51.70;;;;;;5019132;28;20048;-34
2021/05/11 01:07:51;;;;;;;;;;;21.80;51.60;;;;;;5033964;28;20030;-35
2021/05/11 01:10:16;;;;;;;1.40;1.00;;;21.90;51.70;;;;;;5064306;28;19915;-34
2021/05/11 01:13:03;;;;;;;1.02;0.80;;;21.80;51.70;;;;;;5032710;28;20029;-43
2021/05/11 01:15:39;;;;;;;1.58;0.75;;;21.90;51.70;;;;;;5017059;28;20036;-34
2021/05/11 01:18:10;;;;;;;1.00;0.80;;;21.80;51.60;;;;;;5033331;28;20117;-34
2021/05/11 01:20:48;;;;;;;1.42;1.00;;;21.80;51.70;;;;;;5034642;28;20037;-34
2021/05/11 01:49:22;;;;;;;1.92;1.00;;;21.80;51.60;;;;;;5011558;28;20695;-34
2021/05/11 01:58:06;;;;;;;;;;;;;;;;;;;;;
2021/05/11 02:23:14;;;;;;;1.30;0.90;;;21.80;51.60;;;;;;5023452;28;20108;-34
2021/05/11 02:25:49;;;;;;;0.82;0.80;;;21.80;51.60;;;;;;5031844;28;20029;-33
2021/05/11 02:28:17;;;;;;;1.85;0.98;;;21.80;51.70;;;;;;5033021;28;20057;-33
2021/05/11 02:30:46;;;;;;;2.33;0.88;;;21.80;51.70;;;;;;5032594;28;20037;-45
2021/05/11 02:33:20;;;;;;;1.08;0.95;;;21.80;51.50;;;;;;5032865;28;20025;-33
2021/05/11 02:35:59;;;;;;;1.23;0.82;;;21.80;51.50;;;;;;5032272;28;20034;-46
2021/05/11 02:38:31;;;;;;;0.70;0.70;;;21.80;51.60;;;;;;5030062;28;20045;-36
2021/05/11 02:40:56;;;;;;;0.85;0.80;;;21.80;51.50;;;;;;5031749;28;20028;-34
2021/05/11 02:43:35;;;;;;;2.00;0.88;;;21.80;51.40;;;;;;5032927;28;20031;-34
2021/05/11 02:46:00;;;;;;;1.33;0.98;;;21.80;51.60;;;;;;5011845;28;20034;-34
2021/05/11 02:48:38;;;;;;;1.20;0.82;;;21.80;51.50;;;;;;5032206;28;20025;-33
2021/05/11 02:51:24;;;;;;;1.58;0.85;;;21.80;51.60;;;;;;5031986;28;20036;-34
2021/05/11 02:53:49;;;;;;;1.02;0.90;;;21.80;51.60;;;;;;5025946;28;20046;-34
2021/05/11 02:56:20;;;;;;;1.08;0.90;;;21.80;51.60;;;;;;5032106;28;20040;-34
2021/05/11 02:58:50;;;;;;;1.27;0.80;;;21.80;51.60;;;;;;5029252;28;20055;-45
2021/05/11 03:01:21;;;;;;;1.25;0.77;;;21.80;51.50;;;;;;5031816;28;20272;-37
2021/05/11 03:04:04;;;;;;;1.23;0.98;;;21.80;51.60;;;;;;5032178;28;20104;-43
2021/05/11 03:06:43;;;;;;;1.08;0.98;;;21.80;51.50;;;;;;5030917;28;20036;-35
2021/05/11 03:09:12;;;;;;;1.10;0.93;;;21.80;51.50;;;;;;5031609;28;20501;-34
2021/05/11 03:11:40;;;;;;;1.55;1.35;;;21.80;51.50;;;;;;5023319;28;20025;-33
2021/05/11 03:14:33;;;;;;;0.77;0.77;;;21.80;51.60;;;;;;5032160;28;20057;-33
2021/05/11 03:17:01;;;;;;;1.20;0.85;;;21.80;51.70;;;;;;5028692;28;20448;-34
2021/05/11 03:19:27;;;;;;;1.42;0.93;;;21.80;51.60;;;;;;5031934;28;20056;-34
2021/05/11 03:22:01;;;;;;;0.93;0.80;;;21.80;51.60;;;;;;5031487;28;20060;-34
2021/05/11 03:24:46;;;;;;;1.95;1.10;;;21.80;51.50;;;;;;5032185;28;20458;-34
2021/05/11 03:27:13;;;;;;;0.85;0.80;;;21.80;51.60;;;;;;5028422;28;20057;-33
2021/05/11 03:30:05;;;;;;;1.00;0.70;;;21.80;51.60;;;;;;5031639;28;20038;-34
2021/05/11 03:32:34;;;;;;;2.85;1.50;;;21.80;51.50;;;;;;5029045;28;20141;-34
2021/05/11 03:35:38;;;;;;;1.13;0.80;;;21.80;51.60;;;;;;5028972;28;20079;-34
2021/05/11 03:38:07;;;;;;;1.25;0.95;;;21.80;51.50;;;;;;5049713;28;20038;-34
2021/05/11 03:40:51;;;;;;;0.80;0.70;;;21.80;51.50;;;;;;5029533;28;20037;-33
2021/05/11 03:43:48;;;;;;;0.98;0.60;;;21.80;51.50;;;;;;5030978;28;20078;-33
2021/05/11 03:46:11;;;;;;;1.30;0.88;;;21.80;51.50;;;;;;5030437;28;20120;-33
2021/05/11 03:48:40;;;;;;;0.77;0.68;;;21.80;51.50;;;;;;5031459;28;20038;-34
2021/05/11 03:51:08;;;;;;;0.90;0.73;;;21.80;51.40;;;;;;5030980;28;20195;-33
2021/05/11 03:53:54;;;;;;;2.40;1.10;;;21.80;51.40;;;;;;5031967;28;20025;-33
2021/05/11 03:56:38;;;;;;;1.10;1.00;;;21.80;51.40;;;;;;5031040;28;20043;-34
2021/05/11 03:59:07;;;;;;;1.90;0.88;;;21.80;51.40;;;;;;5030456;28;20045;-33
2021/05/11 04:01:39;;;;;;;1.20;0.98;;;21.80;51.40;;;;;;5030266;28;20079;-33
2021/05/11 04:04:04;;;;;;;1.15;1.02;;;21.80;51.50;;;;;;5030865;28;20029;-33
2021/05/11 04:06:59;;;;;;;1.40;1.13;;;21.80;51.50;;;;;;5030725;28;20079;-34
2021/05/11 04:09:33;;;;;;;0.85;0.73;;;21.80;51.50;;;;;;5032088;28;20025;-34
2021/05/11 04:17:42;;;;;;;1.30;0.82;;;21.80;51.50;;;;;;5030678;28;20029;-33
2021/05/11 04:20:25;;;;;;;1.42;0.98;;;21.80;51.50;;;;;;5023647;28;20037;-34
2021/05/11 04:23:10;;;;;;;3.78;1.00;;;21.80;51.30;;;;;;5030610;28;20030;-35
2021/05/11 04:25:36;;;;;;;1.13;0.80;;;21.80;51.40;;;;;;5029355;28;20509;-34
2021/05/11 04:28:02;;;;;;;1.95;1.15;;;21.80;51.90;;;;;;5027364;28;20046;-34
2021/05/11 04:30:28;;;;;;;1.98;0.90;;;21.80;51.40;;;;;;5031100;28;20398;-35
2021/05/11 04:32:54;;;;;;;1.83;1.17;;;21.80;51.50;;;;;;5030752;28;20033;-34
2021/05/11 04:35:20;;;;;;;1.33;0.82;;;21.80;51.40;;;;;;5029769;28;20041;-34
2021/05/11 04:37:45;;;;;;;1.02;0.90;;;21.80;51.40;;;;;;5029447;28;20091;-44
2021/05/11 04:40:11;;;;;;;1.50;0.75;;;21.80;51.50;;;;;;5030987;28;20017;-34
2021/05/11 04:42:41;;;;;;;1.50;1.25;;;21.80;51.50;;;;;;5030869;28;20026;-34
2021/05/11 04:45:08;;;;;;;1.92;1.17;;;21.80;51.50;;;;;;5030372;28;20025;-34
2021/05/11 04:47:50;;;;;;;2.40;1.02;;;21.70;51.30;;;;;;5029796;28;20036;-34
2021/05/11 04:50:18;;;;;;;1.48;1.10;;;21.80;51.40;;;;;;5030811;28;20513;-35
2021/05/11 04:52:44;;;;;;;1.35;1.10;;;21.80;51.40;;;;;;5027005;28;20127;-34
2021/05/11 04:55:11;;;;;;;1.25;1.00;;;21.80;51.40;;;;;;5028963;28;20136;-34
2021/05/11 04:57:37;;;;;;;1.77;1.15;;;21.80;51.30;;;;;;5030983;28;20029;-34
2021/05/11 05:00:04;;;;;;;1.08;0.85;;;21.80;51.40;;;;;;5028733;28;20556;-34
2021/05/11 05:02:31;;;;;;;1.48;1.10;;;21.80;51.40;;;;;;5030927;28;20026;-34
2021/05/11 05:04:57;;;;;;;1.60;1.15;;;21.80;51.50;;;;;;5030445;28;20066;-33
2021/05/11 05:07:23;;;;;;;1.48;1.02;;;21.80;51.40;;;;;;5029324;28;20391;-34
2021/05/11 05:09:49;;;;;;;1.60;1.38;;;21.80;51.60;;;;;;5030783;28;20104;-42
2021/05/11 05:12:14;;;;;;;1.25;1.02;;;21.80;51.30;;;;;;5030453;28;20430;-36
2021/05/11 05:14:40;;;;;;;2.40;1.40;;;21.80;51.40;;;;;;5029211;28;20128;-34
2021/05/11 05:17:06;;;;;;;2.20;1.23;;;21.80;51.30;;;;;;5030211;28;20846;-34
2021/05/11 05:19:31;;;;;;;1.27;1.10;;;21.80;51.40;;;;;;5029644;28;20042;-33
2021/05/11 05:21:57;;;;;;;1.40;1.13;;;21.80;51.40;;;;;;5021144;28;20060;-34
2021/05/11 05:24:31;;;;;;;1.58;1.23;;;21.80;51.50;;;;;;5042696;28;20064;-34
2021/05/11 05:27:02;;;;;;;2.65;1.40;;;21.80;51.60;;;;;;5028499;28;20037;-34
2021/05/11 05:29:27;;;;;;;2.53;1.50;;;21.70;51.50;;;;;;5030861;28;20426;-34
2021/05/11 05:31:53;;;;;;;1.52;1.27;;;21.80;51.50;;;;;;5030758;28;20116;-34
2021/05/11 05:34:19;;;;;;;2.47;1.40;;;21.70;51.30;;;;;;5031281;28;20491;-34
2021/05/11 05:36:44;;;;;;;1.80;1.23;;;21.80;51.30;;;;;;5032470;28;20025;-38
2021/05/11 05:39:12;;;;;;;1.85;1.17;;;21.80;51.30;;;;;;5033204;28;20017;-34
2021/05/11 05:41:37;;;;;;;2.92;1.25;;;21.80;51.50;;;;;;5033886;28;20025;-34
2021/05/11 05:44:03;;;;;;;2.47;1.40;;;21.80;51.70;;;;;;5032736;28;20421;-34
2021/05/11 05:46:29;;;;;;;1.77;1.23;;;21.80;51.60;;;;;;5032734;28;20535;-39
2021/05/11 05:48:55;;;;;;;1.90;1.13;;;21.80;51.60;;;;;;5033237;28;20386;-36
2021/05/11 05:51:21;;;;;;;2.00;1.20;;;21.80;51.80;;;;;;5032780;28;20032;-34
2021/05/11 05:53:47;;;;;;;3.05;1.13;;;21.80;51.80;;;;;;5034236;28;20025;-33
2021/05/11 05:56:13;;;;;;;9.43;1.98;;;21.80;52.00;;;;;;5031517;28;20029;-33
2021/05/11 05:58:39;;;;;;;4.97;1.80;;;21.90;52.30;;;;;;5031480;28;20042;-34
2021/05/11 06:01:08;;;;;;;2.80;1.33;;;21.90;52.50;;;;;;5031975;28;20390;-34
2021/05/11 06:03:59;;;;;;;9.70;1.60;;;21.90;52.50;;;;;;5033757;28;20025;-33
2021/05/11 06:06:24;;;;;;;4.75;1.52;;;22.00;53.10;;;;;;5031844;28;20503;-33
2021/05/11 06:08:50;;;;;;;5.03;1.50;;;21.90;52.90;;;;;;5033198;28;20024;-43
2021/05/11 06:11:37;;;;;;;6.93;1.73;;;21.90;52.90;;;;;;5032112;28;20056;-34
2021/05/11 06:19:16;;;;;;;4.22;1.60;;;21.90;53.10;;;;;;5043902;28;20033;-34
2021/05/11 06:21:41;;;;;;;7.65;1.85;;;21.90;53.50;;;;;;5033719;28;20029;-33
2021/05/11 06:24:08;;;;;;;8.20;2.10;;;21.90;53.50;;;;;;5031244;28;20027;-34
2021/05/11 06:26:34;;;;;;;4.72;1.90;;;21.90;53.70;;;;;;5031568;28;20038;-34
2021/05/11 06:29:01;;;;;;;12.70;2.83;;;21.80;53.50;;;;;;5032005;28;20044;-34
2021/05/11 06:31:27;;;;;;;6.18;2.35;;;21.80;53.90;;;;;;5033081;28;20052;-33
2021/05/11 06:33:54;;;;;;;6.47;1.90;;;21.90;54.10;;;;;;5032568;28;20026;-42
2021/05/11 06:36:19;;;;;;;6.63;1.77;;;21.90;54.10;;;;;;5033242;28;20108;-33
2021/05/11 06:38:45;;;;;;;6.55;2.17;;;21.90;54.50;;;;;;5033153;28;20100;-34
2021/05/11 06:41:12;;;;;;;3.97;2.03;;;21.80;54.70;;;;;;5032024;28;20025;-34
2021/05/11 06:43:40;;;;;;;5.20;2.35;;;21.90;55.20;;;;;;5033041;28;20068;-33
2021/05/11 06:53:53;;;;;;;4.63;1.67;;;21.90;54.80;;;;;;5032465;28;20033;-43
2021/05/11 06:56:22;;;;;;;3.90;1.60;;;21.90;54.80;;;;;;5032359;28;20087;-34
2021/05/11 06:58:48;;;;;;;4.65;1.58;;;21.90;54.80;;;;;;5030883;28;20042;-33
2021/05/11 07:01:18;;;;;;;4.15;2.15;;;21.90;54.60;;;;;;5030641;28;20087;-34
2021/05/11 07:03:44;;;;;;;5.60;1.52;;;21.90;54.50;;;;;;5030952;28;20120;-34
2021/05/11 07:06:12;;;;;;;3.75;1.70;;;21.90;54.60;;;;;;5029625;28;20120;-33
2021/05/11 07:11:26;;;;;;;4.45;1.90;;;21.90;54.70;;;;;;5024603;28;20107;-34
2021/05/11 07:13:52;;;;;;;2.95;1.77;;;21.90;54.70;;;;;;5030630;28;20391;-43
2021/05/11 07:16:18;;;;;;;4.53;2.20;;;21.90;54.60;;;;;;5031450;28;20037;-34
2021/05/11 07:18:44;;;;;;;2.80;1.80;;;21.90;54.60;;;;;;5033344;28;20036;-34
2021/05/11 07:21:09;;;;;;;4.45;1.80;;;21.90;54.60;;;;;;5031244;28;20033;-33
2021/05/11 07:23:35;;;;;;;6.40;1.80;;;21.80;54.50;;;;;;5024927;28;20117;-35
2021/05/11 07:26:11;;;;;;;7.65;2.10;;;21.80;54.50;;;;;;5031406;28;20030;-34
2021/05/11 07:31:13;;;;;;;4.50;1.80;;;21.80;54.40;;;;;;5031019;28;20041;-40
2021/05/11 07:33:45;;;;;;;4.70;1.58;;;21.80;54.40;;;;;;5031645;28;20026;-33
2021/05/11 07:36:12;;;;;;;3.05;1.60;;;21.80;54.40;;;;;;5030708;28;20136;-33
2021/05/11 07:38:38;;;;;;;2.15;1.77;;;21.80;54.40;;;;;;5031561;28;20429;-42
2021/05/11 07:41:05;;;;;;;3.63;1.85;;;21.80;54.30;;;;;;5029670;28;20061;-34
2021/05/11 07:43:33;;;;;;;5.55;1.88;;;21.80;54.30;;;;;;5032004;28;20370;-33
2021/05/11 08:17:56;;;;;;;1.67;1.38;;;21.80;53.80;;;;;;5036842;28;20429;-36
2021/05/11 08:28:14;;;;;;;3.67;1.73;;;21.80;53.70;;;;;;5029171;28;20130;-34
2021/05/11 08:30:40;;;;;;;3.03;1.60;;;21.80;53.70;;;;;;5029503;28;20386;-33
2021/05/11 08:33:06;;;;;;;1.88;1.58;;;21.80;53.70;;;;;;5029294;28;20022;-34
2021/05/11 08:35:32;;;;;;;2.60;1.50;;;21.80;53.60;;;;;;5030850;28;20416;-34
2021/05/11 08:37:57;;;;;;;4.32;2.03;;;21.80;53.60;;;;;;5030633;28;20044;-44
2021/05/11 08:40:25;;;;;;;4.28;1.67;;;21.80;53.50;;;;;;5030136;28;20167;-34
2021/05/11 08:42:50;;;;;;;3.13;1.50;;;21.80;53.50;;;;;;5029183;28;20120;-34
2021/05/11 08:45:17;;;;;;;4.97;1.55;;;21.80;53.50;;;;;;5029004;28;20108;-34
2021/05/11 08:47:49;;;;;;;3.03;1.52;;;21.80;54.10;;;;;;5035054;28;20040;-33
2021/05/11 08:50:36;;;;;;;1.67;1.40;;;21.80;54.00;;;;;;5028869;28;20183;-36
2021/05/11 09:07:56;;;;;;;1.73;1.25;;;21.80;53.90;;;;;;5033845;28;20048;-34
2021/05/11 09:23:33;;;;;;;2.60;1.20;;;21.80;53.10;;;;;;5054474;28;20778;-34
2021/05/11 09:57:26;;;;;;;1.50;1.20;;;21.90;52.90;;;;;;5032987;28;20105;-45
2021/05/11 10:01:05;;;;;;;1.85;1.40;;;21.90;52.80;;;;;;5032429;28;20082;-33
2021/05/11 10:12:08;;;;;;;1.73;1.33;;;21.90;52.70;;;;;;5032252;28;20402;-37
2021/05/11 10:48:29;;;;;;;1.80;1.50;;;22.00;54.20;;;;;;5035487;28;20037;-34
2021/05/11 10:51:18;;;;;;;2.40;1.70;;;21.90;54.30;;;;;;5032787;28;20099;-34
2021/05/11 10:53:49;;;;;;;1.40;1.30;;;22.00;54.30;;;;;;5032400;28;20446;-34
2021/05/11 10:56:37;;;;;;;1.85;1.33;;;21.90;54.20;;;;;;5031165;28;20071;-34
2021/05/11 11:01:45;;;;;;;1.70;1.58;;;21.90;54.20;;;;;;5024392;28;20038;-33
2021/05/11 11:04:14;;;;;;;2.78;1.60;;;21.90;54.20;;;;;;5031604;28;20037;-33
2021/05/11 11:06:59;;;;;;;1.80;1.30;;;22.00;54.20;;;;;;5032184;28;20025;-34
2021/05/11 11:09:26;;;;;;;3.15;1.52;;;21.90;54.10;;;;;;5031218;28;20490;-34
2021/05/11 11:11:52;;;;;;;2.40;1.60;;;21.90;54.10;;;;;;5030708;28;20062;-33
2021/05/11 11:14:18;;;;;;;2.15;1.38;;;21.90;54.10;;;;;;5031961;28;20045;-34
2021/05/11 11:16:44;;;;;;;4.10;1.50;;;21.90;54.10;;;;;;5032421;28;20029;-33
2021/05/11 11:19:16;;;;;;;2.42;1.73;;;21.90;54.00;;;;;;5036667;28;20076;-34
2021/05/11 11:23:32;;;;;;;2.70;1.70;;;21.90;54.00;;;;;;5032027;28;20033;-33
2021/05/11 11:24:37;;;;;;;2.38;1.88;;;21.90;53.90;;;;;;5031191;28;20410;-33
2021/05/11 11:27:04;;;;;;;1.98;1.50;;;22.00;53.90;;;;;;5030812;28;20049;-45
2021/05/11 11:29:30;;;;;;;4.22;2.45;;;22.00;53.90;;;;;;5031610;28;20041;-34
2021/05/11 11:31:56;;;;;;;2.40;1.83;;;22.00;53.90;;;;;;5031174;28;20048;-33
2021/05/11 11:34:36;;;;;;;2.22;1.70;;;21.90;53.90;;;;;;5031320;28;20030;-34
2021/05/11 11:37:13;;;;;;;2.78;1.92;;;21.90;53.80;;;;;;5015203;28;20021;-45
2021/05/11 11:39:49;;;;;;;3.50;1.88;;;21.90;53.80;;;;;;5032247;28;20390;-33
2021/05/11 11:42:39;;;;;;;2.10;1.63;;;21.90;53.80;;;;;;5028968;28;20030;-34
2021/05/11 11:45:25;;;;;;;2.20;1.67;;;22.00;53.80;;;;;;5030828;28;20036;-38
2021/05/11 11:48:00;;;;;;;2.67;1.48;;;21.90;53.80;;;;;;5029559;28;20030;-33
2021/05/11 11:50:27;;;;;;;3.22;1.85;;;22.00;53.80;;;;;;5029921;28;20032;-33
2021/05/11 11:57:57;;;;;;;2.35;1.48;;;21.90;53.70;;;;;;5031096;28;20104;-34
2021/05/11 12:00:24;;;;;;;2.67;1.50;;;22.00;53.70;;;;;;5030568;28;20265;-33
2021/05/11 12:03:26;;;;;;;2.20;1.65;;;22.00;53.80;;;;;;5031479;28;20095;-34
2021/05/11 12:08:21;;;;;;;2.92;1.50;;;22.00;53.80;;;;;;5022127;28;20536;-34
2021/05/11 12:10:57;;;;;;;3.08;1.60;;;22.00;54.00;;;;;;5031158;28;20025;-33
2021/05/11 12:13:25;;;;;;;2.15;1.65;;;22.00;54.00;;;;;;5030200;28;20018;-33
2021/05/11 12:16:15;;;;;;;2.15;1.60;;;22.00;54.20;;;;;;5029848;28;20037;-34
2021/05/11 12:19:04;;;;;;;5.22;1.63;;;22.00;54.50;;;;;;5035597;28;20025;-34
2021/05/11 12:21:31;;;;;;;2.33;1.55;;;22.00;54.50;;;;;;5024422;28;20025;-33
2021/05/11 12:24:09;;;;;;;1.90;1.63;;;22.00;54.70;;;;;;5029586;28;20109;-34
2021/05/11 12:26:36;;;;;;;2.05;1.73;;;22.00;54.50;;;;;;5031654;28;20098;-34
2021/05/11 12:29:09;;;;;;;1.83;1.60;;;22.00;54.60;;;;;;5030752;28;20127;-43
2021/05/11 12:31:40;;;;;;;1.67;1.50;;;22.00;54.60;;;;;;5030043;28;20033;-34
2021/05/11 12:34:08;;;;;;;4.30;1.85;;;22.00;54.60;;;;;;5028209;28;20086;-45
2021/05/11 12:36:51;;;;;;;1.50;1.40;;;22.00;54.60;;;;;;5024234;28;20175;-33
2021/05/11 12:42:24;;;;;;;1.42;1.30;;;22.00;54.60;;;;;;5035707;28;20405;-34
2021/05/11 12:45:14;;;;;;;1.60;1.35;;;22.00;54.70;;;;;;5029494;28;20061;-34
2021/05/11 12:47:42;;;;;;;1.90;1.42;;;22.00;54.60;;;;;;5044209;28;20394;-33
2021/05/11 12:50:32;;;;;;;1.98;1.50;;;22.00;54.60;;;;;;5032611;28;20095;-34
2021/05/11 12:53:17;;;;;;;1.60;1.50;;;22.00;54.40;;;;;;5033255;28;20489;-33
2021/05/11 13:23:24;;;;;;;1.42;1.27;;;21.90;54.20;;;;;;5032734;28;20033;-34
2021/05/11 13:25:54;;;;;;;1.77;1.45;;;21.90;54.20;;;;;;5033928;28;20025;-34
2021/05/11 13:34:11;;;;;;;3.38;1.40;;;21.90;54.10;;;;;;5010596;28;20438;-34
2021/05/11 13:36:41;;;;;;;1.75;1.35;;;21.90;54.10;;;;;;5029503;28;20080;-34
2021/05/11 13:39:11;;;;;;;1.33;1.13;;;21.90;54.10;;;;;;5032270;28;20052;-44
2021/05/11 13:41:37;;;;;;;2.28;1.13;;;21.90;54.20;;;;;;5026353;28;20029;-33
2021/05/11 13:44:04;;;;;;;1.75;1.20;;;21.90;54.10;;;;;;5034103;28;20026;-33
2021/05/11 13:46:31;;;;;;;1.60;1.10;;;21.90;54.00;;;;;;5033074;28;20037;-34
2021/05/11 13:48:57;;;;;;;1.60;1.17;;;21.90;54.00;;;;;;5033772;28;20433;-33
2021/05/11 13:51:24;;;;;;;1.58;1.30;;;21.90;54.00;;;;;;5032185;28;20033;-34
2021/05/11 13:53:54;;;;;;;2.05;1.35;;;21.90;53.90;;;;;;5033501;28;20029;-35
2021/05/11 14:04:04;;;;;;;1.40;1.30;;;21.90;53.80;;;;;;5033288;28;20033;-33
2021/05/11 14:06:30;;;;;;;2.60;1.55;;;21.90;53.90;;;;;;5032984;28;20037;-34
2021/05/11 14:08:55;;;;;;;1.48;1.17;;;21.90;53.80;;;;;;5033284;28;20355;-34
2021/05/11 14:11:21;;;;;;;2.08;1.48;;;21.90;53.80;;;;;;5032843;28;20080;-34
2021/05/11 14:13:47;;;;;;;1.33;1.15;;;21.90;53.80;;;;;;5032067;28;20533;-34
2021/05/11 14:16:13;;;;;;;1.77;1.40;;;21.90;53.70;;;;;;5032584;28;20057;-34
2021/05/11 14:18:39;;;;;;;1.52;1.27;;;21.90;53.70;;;;;;5038558;28;20530;-34
2021/05/11 14:21:06;;;;;;;2.03;1.38;;;21.90;53.70;;;;;;5033197;28;20036;-34
2021/05/11 14:23:32;;;;;;;1.80;1.45;;;21.90;53.70;;;;;;5028436;28;20037;-35
2021/05/11 14:25:58;;;;;;;1.85;1.35;;;21.90;53.70;;;;;;5032558;28;20041;-34
2021/05/11 14:28:24;;;;;;;1.60;1.20;;;21.90;53.60;;;;;;5032772;28;20167;-33
2021/05/11 14:30:50;;;;;;;1.98;1.50;;;21.90;54.30;;;;;;5032998;28;20490;-33
2021/05/11 14:33:16;;;;;;;1.73;1.42;;;21.90;53.70;;;;;;5032130;28;20034;-34
2021/05/11 14:35:42;;;;;;;1.30;1.10;;;21.90;53.80;;;;;;5033125;28;20076;-34
2021/05/11 14:38:07;;;;;;;1.83;1.40;;;21.90;53.60;;;;;;5031293;28;20031;-43
2021/05/11 14:40:33;;;;;;;1.30;1.20;;;21.90;53.60;;;;;;5031076;28;20120;-34
2021/05/11 14:42:59;;;;;;;1.88;1.38;;;21.90;53.60;;;;;;5032476;28;20033;-34
2021/05/11 14:45:26;;;;;;;1.58;1.30;;;21.80;53.50;;;;;;5032181;28;20045;-33
2021/05/11 14:47:54;;;;;;;1.40;1.30;;;21.80;53.50;;;;;;5033372;28;20037;-34
2021/05/11 14:50:21;;;;;;;1.20;1.10;;;21.80;53.50;;;;;;5030444;28;20029;-34
2021/05/11 14:52:51;;;;;;;2.78;1.00;;;21.90;54.20;;;;;;5032706;28;20163;-34
2021/05/11 14:55:19;;;;;;;2.25;1.30;;;21.90;53.50;;;;;;5031806;28;20037;-34
2021/05/11 14:57:45;;;;;;;1.70;1.30;;;21.80;53.50;;;;;;5032194;28;20157;-34
2021/05/11 15:00:12;;;;;;;1.33;1.15;;;21.90;53.60;;;;;;5031469;28;20074;-42
2021/05/11 15:02:38;;;;;;;3.65;1.30;;;21.80;53.50;;;;;;5030525;28;20379;-34
2021/05/11 15:05:04;;;;;;;1.33;1.20;;;21.80;53.50;;;;;;5032604;28;20037;-34
2021/05/11 15:07:32;;;;;;;1.25;1.10;;;21.80;53.60;;;;;;5030715;28;20492;-33
2021/05/11 15:09:57;;;;;;;1.23;1.02;;;21.90;53.80;;;;;;5030881;28;20103;-34
2021/05/11 15:12:24;;;;;;;2.30;1.23;;;21.90;54.00;;;;;;5031412;28;20450;-34
2021/05/11 15:14:50;;;;;;;1.42;0.95;;;21.80;53.90;;;;;;5032030;28;20463;-36
2021/05/11 15:19:51;;;;;;;2.55;1.10;;;21.80;54.10;;;;;;5031992;28;20041;-35
2021/05/11 15:22:18;;;;;;;1.67;1.00;;;21.80;54.10;;;;;;5031573;28;20034;-34
2021/05/11 15:24:44;;;;;;;0.82;0.73;;;21.80;54.10;;;;;;5030746;28;20088;-34
2021/05/11 15:27:10;;;;;;;1.45;1.00;;;21.80;54.10;;;;;;5031585;28;20108;-42
2021/05/11 15:29:40;;;;;;;1.90;0.73;;;21.80;54.10;;;;;;5031625;28;20037;-34
2021/05/11 15:32:35;;;;;;;1.98;1.15;;;21.80;54.20;;;;;;5032010;28;20029;-35
2021/05/11 15:35:01;;;;;;;1.25;0.70;;;21.80;54.10;;;;;;5031481;28;20095;-34
2021/05/11 15:37:26;;;;;;;1.60;0.90;;;21.80;54.20;;;;;;5031336;28;20029;-34
2021/05/11 15:39:52;;;;;;;2.88;1.00;;;21.80;54.20;;;;;;5030533;28;20032;-35
2021/05/11 15:42:17;;;;;;;2.03;1.25;;;21.80;54.20;;;;;;5031749;28;20440;-33
2021/05/11 15:44:43;;;;;;;1.83;0.80;;;21.90;54.20;;;;;;5030731;28;20390;-34
2021/05/11 15:47:09;;;;;;;0.80;0.80;;;21.80;54.20;;;;;;5031596;28;20470;-42
2021/05/11 15:49:34;;;;;;;1.85;1.00;;;21.80;54.20;;;;;;5030054;28;20033;-34
2021/05/11 15:52:00;;;;;;;1.40;0.88;;;21.80;54.20;;;;;;5030872;28;20466;-34
2021/05/11 15:54:25;;;;;;;0.90;0.80;;;21.80;54.30;;;;;;5013466;28;20568;-34
2021/05/11 15:56:51;;;;;;;2.13;1.00;;;21.80;54.30;;;;;;5030270;28;20116;-34
2021/05/11 15:59:17;;;;;;;1.30;0.70;;;21.80;54.30;;;;;;5028835;28;20054;-34
2021/05/11 16:01:43;;;;;;;1.20;0.90;;;21.80;54.30;;;;;;5031427;28;20105;-34
2021/05/11 16:04:08;;;;;;;0.70;0.70;;;21.80;54.30;;;;;;5031680;28;20487;-44
2021/05/11 16:06:34;;;;;;;0.88;0.70;;;21.80;54.40;;;;;;5030685;28;20045;-33
2021/05/11 16:09:00;;;;;;;0.70;0.70;;;21.90;54.40;;;;;;5031885;28;20032;-33
2021/05/11 16:11:25;;;;;;;0.82;0.70;;;21.90;54.40;;;;;;5027803;28;20410;-38
2021/05/11 16:13:51;;;;;;;1.65;0.80;;;21.80;54.40;;;;;;5029270;28;20029;-34
2021/05/11 16:16:18;;;;;;;1.08;0.77;;;21.80;54.40;;;;;;5030426;28;20045;-34
2021/05/11 16:18:43;;;;;;;1.05;0.73;;;21.80;54.30;;;;;;5032585;28;20029;-34
2021/05/11 16:21:09;;;;;;;0.80;0.75;;;21.80;54.30;;;;;;5030286;28;20037;-44
2021/05/11 16:23:35;;;;;;;0.90;0.68;;;21.80;54.40;;;;;;5028437;28;20032;-33
2021/05/11 16:26:01;;;;;;;1.95;0.88;;;21.80;54.30;;;;;;5032036;28;20502;-33
2021/05/11 16:28:26;;;;;;;0.80;0.80;;;21.80;54.40;;;;;;5030866;28;20374;-33
2021/05/11 16:30:52;;;;;;;0.60;0.60;;;21.90;54.50;;;;;;5030741;28;20022;-34
2021/05/11 16:33:17;;;;;;;0.90;0.75;;;21.80;54.40;;;;;;5030199;28;20048;-34
2021/05/11 16:35:44;;;;;;;0.82;0.60;;;21.80;54.40;;;;;;5031144;28;20033;-34
2021/05/11 16:38:11;;;;;;;1.38;0.65;;;21.80;54.40;;;;;;5030469;28;20117;-46
2021/05/11 16:40:36;;;;;;;0.90;0.60;;;21.80;54.40;;;;;;5030931;28;20112;-34
2021/05/11 16:43:03;;;;;;;1.58;0.90;;;21.80;54.40;;;;;;5029942;28;20527;-33
2021/05/11 16:45:30;;;;;;;0.68;0.52;;;21.80;54.40;;;;;;5025978;28;20041;-34
2021/05/11 16:47:56;;;;;;;0.75;0.60;;;21.80;54.50;;;;;;5028809;28;20030;-34
2021/05/11 16:50:27;;;;;;;1.45;0.70;;;21.80;54.50;;;;;;5028571;28;20079;-34
2021/05/11 16:52:54;;;;;;;0.88;0.75;;;21.80;54.50;;;;;;5028880;28;20040;-34
2021/05/11 16:55:20;;;;;;;0.95;0.57;;;21.80;54.40;;;;;;5010163;28;20165;-34
2021/05/11 16:57:46;;;;;;;1.75;0.60;;;21.80;54.40;;;;;;5028595;28;20057;-34
2021/05/11 17:00:12;;;;;;;0.65;0.65;;;21.80;54.50;;;;;;5030274;28;20099;-42
2021/05/11 17:02:37;;;;;;;0.68;0.45;;;21.80;54.40;;;;;;5031676;28;20025;-34
2021/05/11 17:05:04;;;;;;;10.93;0.80;;;21.80;54.90;;;;;;5031720;28;20060;-43
2021/05/11 17:07:29;;;;;;;6.65;0.77;;;21.90;55.30;;;;;;5026307;28;20038;-34
2021/05/11 17:09:55;;;;;;;3.80;0.70;;;21.80;55.30;;;;;;5030978;28;20026;-34
2021/05/11 17:12:21;;;;;;;4.32;0.80;;;21.90;55.50;;;;;;5029747;28;20030;-34
2021/05/11 17:14:46;;;;;;;3.97;0.90;;;21.90;55.20;;;;;;5029286;28;20056;-34
2021/05/11 17:17:12;;;;;;;4.13;0.80;;;22.00;55.20;;;;;;5030213;28;20386;-43
2021/05/11 17:19:37;;;;;;;4.85;0.60;;;21.90;55.20;;;;;;5031534;28;20080;-34
2021/05/11 17:22:03;;;;;;;1.02;0.55;;;22.00;55.40;;;;;;5030541;28;20080;-33
2021/05/11 17:24:29;;;;;;;1.40;0.80;;;22.00;55.60;;;;;;5029911;28;20026;-34
2021/05/11 17:26:56;;;;;;;3.17;1.25;;;22.00;55.70;;;;;;5034079;28;20033;-33
2021/05/11 17:29:22;;;;;;;1.88;0.70;;;22.00;55.70;;;;;;5032225;28;20025;-34
2021/05/11 17:31:50;;;;;;;3.05;0.60;;;22.00;55.40;;;;;;5034313;28;20028;-35
2021/05/11 17:34:16;;;;;;;4.15;0.60;;;22.00;55.70;;;;;;5025214;28;20033;-35
2021/05/11 17:36:43;;;;;;;7.10;0.98;;;22.00;56.00;;;;;;5039844;28;20022;-44
2021/05/11 17:39:09;;;;;;;2.10;0.88;;;22.10;56.10;;;;;;5031057;28;20075;-34
2021/05/11 17:41:35;;;;;;;3.22;0.85;;;22.10;56.40;;;;;;5032059;28;20037;-34
2021/05/11 17:44:02;;;;;;;1.42;0.70;;;22.10;56.20;;;;;;5033724;28;20425;-34